Time;durP1;ratioP1;P1;durP2;ratioP2;P2;SDS_P1;SDS_P2;PMS_P1;PMS_P2;Temp;Humidity;BMP_temperature;BMP_pressure;BME280_temperature;BME280_humidity;BME280_pressure;Samples;Min_cycle;Max_cycle;Signal;HPM_P1;HPM_P2
2021/01/26 00:02:12;;;;;;;48.42;22.87;;;;;;;-0.42;83.94;99288.91;2059020;84;22542;-76
2021/01/26 00:05:14;;;;;;;42.65;22.35;;;;;;;-0.44;83.98;99293.44;2069183;84;21101;-77
2021/01/26 00:08:16;;;;;;;41.58;23.45;;;;;;;-0.44;84.08;99297.34;2081078;84;21485;-77
2021/01/26 00:11:17;;;;;;;42.08;22.82;;;;;;;-0.46;84.18;99295.67;2076614;84;21141;-76
2021/01/26 00:14:19;;;;;;;44.70;24.23;;;;;;;-0.43;84.11;99304.20;2076170;84;21213;-76
2021/01/26 00:17:20;;;;;;;47.40;25.45;;;;;;;-0.43;84.25;99293.78;2079362;84;21204;-76
2021/01/26 00:20:22;;;;;;;44.48;23.90;;;;;;;-0.43;84.14;99300.30;2075207;84;21565;-77
2021/01/26 00:23:24;;;;;;;44.65;23.92;;;;;;;-0.44;84.10;99305.17;2037507;85;21214;-76
2021/01/26 00:26:25;;;;;;;40.80;22.42;;;;;;;-0.44;84.07;99310.38;2059175;84;21232;-76
2021/01/26 00:29:27;;;;;;;40.40;23.07;;;;;;;-0.48;84.12;99301.94;2057706;84;21767;-76
2021/01/26 00:32:29;;;;;;;43.95;22.67;;;;;;;-0.48;84.16;99300.19;2061960;84;21117;-76
2021/01/26 00:35:31;;;;;;;45.75;23.85;;;;;;;-0.47;84.08;99306.23;2056976;84;21153;-76
2021/01/26 00:38:32;;;;;;;45.28;23.80;;;;;;;-0.44;84.22;99311.69;2061449;84;21171;-77
2021/01/26 00:41:34;;;;;;;47.80;23.32;;;;;;;-0.47;84.28;99309.66;2051828;85;21144;-76
2021/01/26 00:44:37;;;;;;;42.70;22.77;;;;;;;-0.49;84.18;99311.54;2058151;85;21190;-76
2021/01/26 00:47:38;;;;;;;44.77;22.90;;;;;;;-0.49;84.15;99312.02;2058896;84;21144;-76
2021/01/26 00:50:40;;;;;;;44.65;21.48;;;;;;;-0.51;84.12;99313.45;2086097;83;21141;-76
2021/01/26 00:53:42;;;;;;;40.23;21.10;;;;;;;-0.51;84.19;99312.16;2056322;84;21605;-76
2021/01/26 00:56:45;;;;;;;45.67;21.70;;;;;;;-0.49;84.21;99312.84;2057889;84;21109;-77
2021/01/26 00:59:48;;;;;;;38.63;22.05;;;;;;;-0.48;84.17;99313.22;2058018;84;21209;-76
2021/01/26 01:02:50;;;;;;;41.28;21.30;;;;;;;-0.47;84.17;99314.05;2058364;84;21672;-76
2021/01/26 01:05:52;;;;;;;39.58;20.60;;;;;;;-0.50;84.12;99315.11;2072874;84;21739;-76
2021/01/26 01:08:53;;;;;;;39.45;20.32;;;;;;;-0.48;84.12;99320.19;2068218;84;22057;-73
2021/01/26 01:11:55;;;;;;;36.53;19.82;;;;;;;-0.49;84.15;99318.05;2067939;84;21120;-73
2021/01/26 01:14:56;;;;;;;34.33;18.07;;;;;;;-0.50;84.13;99316.89;2067537;84;21169;-76
2021/01/26 01:17:58;;;;;;;38.65;21.20;;;;;;;-0.52;84.31;99316.98;2070577;84;21184;-74
2021/01/26 01:20:59;;;;;;;39.20;20.85;;;;;;;-0.53;84.37;99321.03;2058547;84;21137;-75
2021/01/26 01:24:01;;;;;;;34.45;19.67;;;;;;;-0.55;84.41;99317.22;2074893;84;21145;-74
2021/01/26 01:27:02;;;;;;;35.20;19.10;;;;;;;-0.55;84.39;99321.13;2078097;84;21601;-74
2021/01/26 01:30:07;;;;;;;30.95;16.00;;;;;;;-0.58;84.45;99321.36;2079257;84;21548;-75
2021/01/26 01:33:09;;;;;;;28.15;16.02;;;;;;;-0.57;84.48;99317.80;2073989;84;21137;-77
2021/01/26 01:36:10;;;;;;;24.00;14.38;;;;;;;-0.57;84.39;99327.41;2077263;84;21172;-76
2021/01/26 01:39:12;;;;;;;25.95;15.18;;;;;;;-0.57;84.34;99330.83;2077600;84;21117;-75
2021/01/26 01:42:13;;;;;;;31.40;16.30;;;;;;;-0.55;84.39;99329.42;2075046;84;21090;-76
2021/01/26 01:45:16;;;;;;;33.73;17.00;;;;;;;-0.56;84.44;99328.60;2074552;84;21157;-74
2021/01/26 01:48:25;;;;;;;29.82;17.75;;;;;;;-0.54;84.45;99327.98;2075227;83;21157;-75
2021/01/26 01:51:28;;;;;;;31.65;17.90;;;;;;;-0.53;84.56;99324.94;2072465;83;21206;-74
2021/01/26 01:54:34;;;;;;;30.90;16.52;;;;;;;-0.53;84.75;99327.55;2086614;83;21172;-75
2021/01/26 01:57:40;;;;;;;31.52;17.52;;;;;;;-0.53;84.64;99322.33;2109941;82;21556;-75
2021/01/26 02:00:43;;;;;;;35.50;17.25;;;;;;;-0.53;84.56;99332.75;2116127;82;21620;-74
2021/01/26 02:03:55;;;;;;;29.48;16.25;;;;;;;-0.55;84.55;99330.25;2109230;82;21122;-74
2021/01/26 02:06:58;;;;;;;29.27;17.48;;;;;;;-0.53;84.55;99329.67;2110634;83;21191;-74
2021/01/26 02:09:59;;;;;;;28.57;16.27;;;;;;;-0.51;84.52;99323.88;2108356;82;21125;-74
2021/01/26 02:13:01;;;;;;;29.65;17.17;;;;;;;-0.50;84.54;99326.83;2113899;83;21707;-74
2021/01/26 02:16:05;;;;;;;29.18;17.23;;;;;;;-0.49;84.56;99335.00;2105744;82;21216;-74
2021/01/26 02:20:04;;;;;;;31.17;17.25;;;;;;;-0.47;84.52;99332.29;2112438;82;21135;-76
2021/01/26 02:24:00;;;;;;;31.17;17.27;;;;;;;-0.48;84.49;99337.98;2035187;86;21624;-77
2021/01/26 02:27:43;;;;;;;32.17;17.37;;;;;;;-0.49;84.44;99344.13;2058069;83;21184;-75
2021/01/26 02:31:23;;;;;;;29.75;16.32;;;;;;;-0.50;84.46;99347.68;2115647;82;21665;-75
2021/01/26 02:35:16;;;;;;;27.60;16.35;;;;;;;-0.50;84.42;99348.98;2106353;82;21580;-77
2021/01/26 02:39:15;;;;;;;31.82;17.65;;;;;;;-0.50;84.49;99351.59;2105913;81;21105;-74
2021/01/26 02:42:49;;;;;;;34.18;18.17;;;;;;;-0.52;84.45;99349.56;2106032;82;21208;-75
2021/01/26 02:46:26;;;;;;;36.35;19.52;;;;;;;-0.50;84.46;99355.98;2111864;82;21543;-76
2021/01/26 02:49:48;;;;;;;33.28;18.45;;;;;;;-0.49;84.49;99358.45;2102777;81;21208;-75
2021/01/26 02:53:03;;;;;;;31.25;16.73;;;;;;;-0.46;84.42;99360.83;2087848;83;21631;-75
2021/01/26 02:56:22;;;;;;;32.48;17.32;;;;;;;-0.42;84.51;99357.98;2106957;81;21180;-77
2021/01/26 02:59:40;;;;;;;31.10;17.77;;;;;;;-0.44;84.37;99362.51;2115098;83;21155;-75
2021/01/26 03:02:53;;;;;;;31.25;17.77;;;;;;;-0.44;84.38;99362.51;2108914;82;21129;-75
2021/01/26 03:06:02;;;;;;;31.52;18.00;;;;;;;-0.46;84.37;99367.34;2108071;82;21600;-75
2021/01/26 03:09:17;;;;;;;33.40;17.45;;;;;;;-0.48;84.33;99367.95;2087710;83;21116;-76
2021/01/26 03:12:26;;;;;;;30.82;16.80;;;;;;;-0.48;84.35;99365.80;2112049;82;21109;-75
2021/01/26 03:15:39;;;;;;;29.98;18.37;;;;;;;-0.47;84.39;99356.57;2106870;83;21171;-75
2021/01/26 03:18:48;;;;;;;35.33;16.85;;;;;;;-0.42;84.40;99366.66;2111318;81;21150;-77
2021/01/26 03:21:54;;;;;;;33.70;17.57;;;;;;;-0.45;84.33;99368.20;2104366;82;21137;-75
2021/01/26 03:24:57;;;;;;;31.77;17.90;;;;;;;-0.46;84.37;99366.04;2112982;82;21657;-75
2021/01/26 03:28:02;;;;;;;27.90;16.50;;;;;;;-0.48;84.38;99367.95;2109043;82;21146;-75
2021/01/26 03:31:04;;;;;;;28.73;16.73;;;;;;;-0.47;84.37;99362.27;2109400;83;21128;-75
2021/01/26 03:34:06;;;;;;;31.12;16.70;;;;;;;-0.48;84.37;99363.19;2085379;83;21144;-75
2021/01/26 03:37:07;;;;;;;29.18;16.55;;;;;;;-0.49;84.38;99368.87;2106056;81;21571;-75
2021/01/26 03:40:10;;;;;;;32.23;16.95;;;;;;;-0.49;84.36;99371.48;2110266;82;21136;-75
2021/01/26 03:43:11;;;;;;;30.45;16.17;;;;;;;-0.51;84.36;99369.94;2107720;82;21571;-75
2021/01/26 03:46:24;;;;;;;27.62;14.68;;;;;;;-0.52;84.39;99372.20;2107495;83;21109;-75
2021/01/26 03:50:07;;;;;;;31.07;15.88;;;;;;;-0.52;84.42;99370.41;2112153;82;21132;-75
2021/01/26 03:53:29;;;;;;;30.45;15.45;;;;;;;-0.52;84.28;99370.89;2102457;82;21608;-75
2021/01/26 03:57:23;;;;;;;26.25;14.90;;;;;;;-0.53;84.35;99371.38;2107579;83;21211;-75
2021/01/26 04:00:54;;;;;;;29.85;17.07;;;;;;;-0.55;84.42;99377.64;2110033;81;21169;-76
2021/01/26 04:04:21;;;;;;;27.37;15.90;;;;;;;-0.57;84.39;99378.22;2110260;82;21228;-76
2021/01/26 04:07:28;;;;;;;30.80;16.40;;;;;;;-0.58;84.46;99378.69;2108914;83;21204;-76
2021/01/26 04:10:36;;;;;;;25.52;14.90;;;;;;;-0.59;84.43;99393.98;2107715;82;21151;-77
2021/01/26 04:13:58;;;;;;;28.55;15.95;;;;;;;-0.58;84.49;99387.81;2109626;82;21172;-76
2021/01/26 04:17:10;;;;;;;25.50;14.90;;;;;;;-0.60;84.34;99387.09;2115516;81;21093;-76
2021/01/26 04:20:20;;;;;;;28.87;15.18;;;;;;;-0.60;84.30;99390.17;2108361;82;21172;-75
2021/01/26 04:23:22;;;;;;;30.20;15.87;;;;;;;-0.61;84.22;99397.64;2113069;83;21540;-77
2021/01/26 04:26:25;;;;;;;27.62;15.32;;;;;;;-0.63;84.26;99399.05;2108833;83;21172;-75
2021/01/26 04:29:27;;;;;;;29.00;15.98;;;;;;;-0.62;84.21;99399.42;2105941;82;21164;-76
2021/01/26 04:32:28;;;;;;;29.18;16.10;;;;;;;-0.64;84.18;99400.48;2102312;83;21185;-75
2021/01/26 04:35:30;;;;;;;26.97;16.37;;;;;;;-0.64;84.22;99404.38;2118105;82;21172;-76
2021/01/26 04:38:31;;;;;;;28.47;15.95;;;;;;;-0.65;84.22;99406.13;2107248;83;21164;-76
2021/01/26 04:41:59;;;;;;;24.90;14.90;;;;;;;-0.65;84.16;99406.13;2112742;81;21529;-75
2021/01/26 04:45:21;;;;;;;27.13;16.30;;;;;;;-0.65;84.13;99406.13;2106963;82;21161;-75
2021/01/26 04:48:30;;;;;;;29.37;16.65;;;;;;;-0.66;84.09;99408.87;2114689;83;21210;-76
2021/01/26 04:52:00;;;;;;;26.97;16.37;;;;;;;-0.69;84.13;99413.35;2105739;82;21526;-76
2021/01/26 04:55:23;;;;;;;26.80;15.30;;;;;;;-0.70;84.18;99413.48;2104926;83;21783;-76
2021/01/26 04:59:12;;;;;;;27.93;16.57;;;;;;;-0.73;84.10;99417.62;2106124;83;21132;-77
2021/01/26 05:02:56;;;;;;;31.27;16.65;;;;;;;-0.75;84.18;99422.09;2105311;83;21173;-75
2021/01/26 05:06:04;;;;;;;29.00;17.05;;;;;;;-0.76;84.24;99418.67;2099135;83;21239;-74
2021/01/26 05:09:14;;;;;;;29.70;17.40;;;;;;;-0.77;84.16;99425.28;2105127;83;22308;-74
2021/01/26 05:12:16;;;;;;;33.40;16.93;;;;;;;-0.78;84.16;99431.44;2102690;83;21141;-76
2021/01/26 05:15:25;;;;;;;29.55;16.27;;;;;;;-0.79;84.12;99431.06;2087575;83;21128;-74
2021/01/26 05:18:46;;;;;;;31.40;18.12;;;;;;;-0.78;84.13;99434.05;2103678;83;21196;-76
2021/01/26 05:22:08;;;;;;;31.25;17.65;;;;;;;-0.79;84.16;99429.76;2108025;83;21147;-72
2021/01/26 05:25:14;;;;;;;33.48;18.02;;;;;;;-0.79;84.16;99440.18;2100404;83;21497;-72
2021/01/26 05:28:18;;;;;;;30.08;17.48;;;;;;;-0.80;84.13;99435.45;2106383;83;21133;-71
2021/01/26 05:31:27;;;;;;;28.30;16.17;;;;;;;-0.78;84.16;99441.86;2106720;83;21934;-73
2021/01/26 05:34:32;;;;;;;30.17;16.90;;;;;;;-0.79;84.15;99442.34;2094892;83;21162;-73
2021/01/26 05:37:34;;;;;;;31.30;18.30;;;;;;;-0.80;84.24;99445.05;2096208;83;21249;-75
2021/01/26 05:40:40;;;;;;;34.85;17.73;;;;;;;-0.82;84.15;99435.20;2084842;84;21157;-73
2021/01/26 05:43:42;;;;;;;30.02;17.07;;;;;;;-0.82;84.09;99447.74;2088104;83;21110;-80
2021/01/26 05:46:47;;;;;;;32.95;17.60;;;;;;;-0.81;84.07;99442.09;2087295;83;21083;-74
2021/01/26 05:49:48;;;;;;;36.60;16.40;;;;;;;-0.81;84.13;99444.22;2071783;84;21158;-74
2021/01/26 05:52:51;;;;;;;31.23;17.75;;;;;;;-0.82;84.09;99448.22;2090967;83;21575;-75
2021/01/26 05:56:09;;;;;;;30.15;16.55;;;;;;;-0.81;84.10;99439.00;2110188;83;21145;-71
2021/01/26 05:59:28;;;;;;;27.17;16.10;;;;;;;-0.80;84.06;99450.25;2086494;82;21632;-76
2021/01/26 06:02:30;;;;;;;30.15;16.73;;;;;;;-0.79;84.06;99447.55;2100357;83;21642;-74
2021/01/26 06:05:31;;;;;;;32.65;17.55;;;;;;;-0.77;84.07;99445.64;2101423;83;21145;-74
2021/01/26 06:08:53;;;;;;;28.57;16.15;;;;;;;-0.78;84.05;99457.02;2098651;83;21287;-72
2021/01/26 06:12:08;;;;;;;31.68;16.95;;;;;;;-0.79;84.10;99446.69;2100994;83;21117;-70
2021/01/26 06:15:11;;;;;;;31.07;16.60;;;;;;;-0.80;84.07;99455.46;2082731;83;21214;-74
2021/01/26 06:18:20;;;;;;;36.50;19.32;;;;;;;-0.80;84.15;99462.80;2088570;84;21180;-72
2021/01/26 06:21:21;;;;;;;28.75;17.12;;;;;;;-0.79;84.17;99455.81;2085331;83;21157;-72
2021/01/26 06:24:26;;;;;;;29.92;16.32;;;;;;;-0.78;84.25;99456.19;2099171;83;21160;-72
2021/01/26 06:28:02;;;;;;;29.82;16.27;;;;;;;-0.80;84.28;99458.89;2103093;83;21153;-72
2021/01/26 06:31:12;;;;;;;34.05;19.48;;;;;;;-0.79;84.25;99462.32;2097813;83;21199;-75
2021/01/26 06:34:40;;;;;;;35.65;18.82;;;;;;;-0.78;84.24;99466.61;2111637;82;21160;-71
2021/01/26 06:38:05;;;;;;;33.10;19.20;;;;;;;-0.78;84.26;99464.01;2108478;83;21585;-73
2021/01/26 06:41:24;;;;;;;34.00;19.98;;;;;;;-0.77;84.20;99466.48;2072156;82;21342;-74
2021/01/26 06:44:51;;;;;;;35.43;19.25;;;;;;;-0.76;84.18;99468.61;2111857;82;21172;-73
2021/01/26 06:48:17;;;;;;;35.20;19.50;;;;;;;-0.76;84.13;99477.28;2074720;83;21798;-76
2021/01/26 06:51:36;;;;;;;34.58;18.77;;;;;;;-0.74;84.19;99476.69;2107078;82;21232;-73
2021/01/26 06:55:02;;;;;;;35.60;19.75;;;;;;;-0.73;84.13;99480.14;2095658;83;21730;-74
2021/01/26 06:58:30;;;;;;;34.43;18.80;;;;;;;-0.72;84.13;99483.09;2094769;83;21206;-74
2021/01/26 07:02:15;;;;;;;35.73;20.57;;;;;;;-0.72;84.02;99481.80;2097847;83;21165;-70
2021/01/26 07:05:22;;;;;;;34.98;20.40;;;;;;;-0.70;83.93;99482.52;2098904;83;21121;-73
2021/01/26 07:08:52;;;;;;;39.75;22.17;;;;;;;-0.70;83.88;99487.73;2101591;83;21157;-72
2021/01/26 07:12:35;;;;;;;33.87;19.13;;;;;;;-0.70;83.82;99490.34;2077323;84;21212;-72
2021/01/26 07:16:01;;;;;;;38.60;21.85;;;;;;;-0.70;83.78;99485.13;2112981;83;21537;-75
2021/01/26 07:19:29;;;;;;;39.57;22.20;;;;;;;-0.71;83.79;99499.08;2098714;82;21542;-73
2021/01/26 07:23:02;;;;;;;37.13;21.37;;;;;;;-0.70;83.82;99496.38;2099444;83;21204;-75
2021/01/26 07:26:21;;;;;;;36.00;21.40;;;;;;;-0.70;83.74;99499.46;2101518;83;21142;-74
2021/01/26 07:29:58;;;;;;;41.20;21.62;;;;;;;-0.65;83.79;99501.23;2081026;82;21142;-74
2021/01/26 07:33:29;;;;;;;41.50;22.93;;;;;;;-0.58;83.76;99510.30;2106533;83;21557;-73
2021/01/26 07:36:39;;;;;;;44.98;23.25;;;;;;;-0.54;83.75;99518.23;2074380;83;21629;-73
2021/01/26 07:40:18;;;;;;;39.05;22.05;;;;;;;-0.52;83.75;99522.88;2101426;82;21149;-73
2021/01/26 07:43:27;;;;;;;41.08;22.30;;;;;;;-0.50;83.75;99527.52;2103824;83;21188;-74
2021/01/26 07:46:40;;;;;;;42.25;24.35;;;;;;;-0.47;83.76;99525.16;2105261;83;21223;-75
2021/01/26 07:49:54;;;;;;;38.90;22.02;;;;;;;-0.44;83.78;99521.50;2097650;83;21166;-74
2021/01/26 07:53:00;;;;;;;35.78;20.30;;;;;;;-0.36;83.76;99524.39;2105995;83;21109;-74
2021/01/26 07:56:13;;;;;;;33.58;20.35;;;;;;;-0.34;83.48;99529.00;2113630;83;21520;-74
2021/01/26 07:59:44;;;;;;;37.25;21.00;;;;;;;-0.33;83.50;99531.51;2111658;83;21089;-74
2021/01/26 08:02:50;;;;;;;37.57;21.40;;;;;;;-0.31;83.45;99526.16;2112777;82;21105;-74
2021/01/26 08:06:00;;;;;;;42.80;23.47;;;;;;;-0.28;83.43;99540.31;2110675;83;21108;-75
2021/01/26 08:09:06;;;;;;;33.65;21.45;;;;;;;-0.25;83.43;99536.17;2109545;83;21157;-74
2021/01/26 08:12:18;;;;;;;36.85;21.80;;;;;;;-0.22;83.42;99545.07;2107432;83;21608;-75
2021/01/26 08:15:33;;;;;;;43.63;26.95;;;;;;;-0.20;83.34;99542.33;2087511;83;21199;-73
2021/01/26 08:18:35;;;;;;;44.48;25.60;;;;;;;-0.19;83.38;99549.23;2111035;83;21218;-72
2021/01/26 08:21:47;;;;;;;38.17;22.95;;;;;;;-0.20;83.38;99547.55;2107867;83;21121;-74
2021/01/26 08:25:00;;;;;;;36.13;22.95;;;;;;;-0.20;83.34;99543.64;2111538;82;21213;-79
2021/01/26 08:28:11;;;;;;;34.08;19.98;;;;;;;-0.19;83.37;99547.45;2108557;81;21156;-75
2021/01/26 08:31:34;;;;;;;;;;;;;;;-0.18;83.25;99548.28;2114891;83;21625;-74
2021/01/26 08:34:38;;;;;;;35.40;21.00;;;;;;;-0.20;83.30;99548.85;2106718;81;20133;-74
2021/01/26 08:37:51;;;;;;;49.77;25.40;;;;;;;-0.21;83.26;99549.33;2111940;82;21632;-74
2021/01/26 08:41:03;;;;;;;43.33;23.80;;;;;;;-0.19;83.36;99549.23;2113481;83;21136;-75
2021/01/26 08:44:09;;;;;;;37.45;23.20;;;;;;;-0.18;83.25;99548.28;2108565;83;21101;-73
2021/01/26 08:47:43;;;;;;;36.03;20.65;;;;;;;-0.15;83.25;99555.39;2086647;83;22620;-74
2021/01/26 08:50:55;;;;;;;35.78;22.48;;;;;;;-0.12;83.13;99550.44;2084298;83;21157;-73
2021/01/26 08:53:57;;;;;;;35.65;21.48;;;;;;;-0.14;83.00;99556.22;2101909;83;21221;-73
2021/01/26 08:56:59;;;;;;;34.78;20.88;;;;;;;-0.18;82.98;99559.53;2101229;83;21196;-73
2021/01/26 09:00:26;;;;;;;36.13;22.10;;;;;;;-0.19;83.09;99557.88;2111091;82;21094;-73
2021/01/26 09:03:33;;;;;;;32.42;18.90;;;;;;;-0.17;83.09;99559.91;2098652;83;21225;-74
2021/01/26 09:06:45;;;;;;;39.90;22.15;;;;;;;-0.14;83.09;99566.20;2097023;83;21105;-74
2021/01/26 09:09:51;;;;;;;33.53;21.15;;;;;;;-0.11;82.99;99568.59;2102795;83;21192;-74
2021/01/26 09:13:14;;;;;;;35.48;20.72;;;;;;;-0.13;82.93;99571.77;2099877;83;21156;-75
2021/01/26 09:16:24;;;;;;;32.88;20.82;;;;;;;-0.11;82.97;99568.59;2095708;83;21142;-74
2021/01/26 09:19:55;;;;;;;36.00;21.02;;;;;;;-0.11;82.81;99568.59;2102368;83;21637;-75
2021/01/26 09:23:06;;;;;;;32.53;19.40;;;;;;;-0.12;82.81;99571.30;2106928;83;21975;-74
2021/01/26 09:26:18;;;;;;;30.82;19.25;;;;;;;-0.15;82.70;99569.73;2101906;83;21529;-76
2021/01/26 09:29:27;;;;;;;31.57;17.67;;;;;;;-0.15;82.75;99572.34;2100618;82;21134;-74
2021/01/26 09:32:28;;;;;;;29.72;17.37;;;;;;;-0.12;82.81;99574.73;2103031;82;21532;-74
2021/01/26 09:35:40;;;;;;;32.23;19.32;;;;;;;-0.09;82.62;99577.11;2100495;83;21147;-74
2021/01/26 09:38:48;;;;;;;32.38;18.75;;;;;;;-0.08;82.53;99584.48;2099281;83;21145;-74
2021/01/26 09:41:49;;;;;;;31.05;17.23;;;;;;;-0.07;82.67;99583.53;2102770;82;21194;-75
2021/01/26 09:45:03;;;;;;;33.28;19.05;;;;;;;-0.06;82.44;99587.34;2106869;83;21181;-74
2021/01/26 09:48:06;;;;;;;29.48;17.10;;;;;;;-0.10;82.28;99591.11;2098083;83;21145;-74
2021/01/26 09:51:28;;;;;;;30.62;17.70;;;;;;;-0.06;82.21;99582.58;2098962;82;21170;-74
2021/01/26 09:54:37;;;;;;;29.23;17.37;;;;;;;-0.07;82.14;99595.27;2067495;83;21180;-74
2021/01/26 09:57:41;;;;;;;36.23;20.35;;;;;;;-0.08;81.87;99578.80;2066154;84;21220;-74
2021/01/26 10:00:42;;;;;;;29.77;17.65;;;;;;;-0.11;81.97;99588.15;2068073;84;21144;-75
2021/01/26 10:03:44;;;;;;;24.82;15.70;;;;;;;-0.12;81.99;99584.33;2067581;85;21640;-74
2021/01/26 10:06:47;;;;;;;28.12;16.55;;;;;;;-0.07;81.87;99600.01;2065480;85;21537;-75
2021/01/26 10:09:50;;;;;;;27.13;17.45;;;;;;;-0.08;81.85;99596.23;2041812;85;21145;-74
2021/01/26 10:12:52;;;;;;;28.12;17.65;;;;;;;-0.12;81.80;99602.11;2067935;83;21188;-74
2021/01/26 10:15:55;;;;;;;29.35;16.45;;;;;;;-0.13;81.80;99606.16;2062713;85;21167;-74
2021/01/26 10:19:03;;;;;;;29.80;17.62;;;;;;;-0.16;81.62;99604.59;2065979;85;21217;-74
2021/01/26 10:22:16;;;;;;;28.80;17.15;;;;;;;-0.17;81.79;99607.30;2066548;83;21786;-74
2021/01/26 10:25:18;;;;;;;28.80;17.73;;;;;;;-0.15;81.90;99608.03;2067323;84;21235;-74
2021/01/26 10:28:26;;;;;;;27.98;15.60;;;;;;;-0.11;81.90;99607.70;2065450;83;21121;-74
2021/01/26 10:31:32;;;;;;;29.98;17.05;;;;;;;-0.07;81.35;99599.18;2069293;85;21121;-75
2021/01/26 10:34:44;;;;;;;32.20;16.93;;;;;;;-0.06;81.48;99608.21;2060473;85;21523;-73
2021/01/26 10:37:46;;;;;;;30.43;16.35;;;;;;;-0.06;81.32;99609.96;2066115;83;21196;-74
2021/01/26 10:40:49;;;;;;;25.30;14.98;;;;;;;-0.05;81.15;99603.34;2068265;85;24788;-73
2021/01/26 10:44:12;;;;;;;28.35;17.05;;;;;;;-0.04;81.01;99604.17;2064746;85;21124;-74
2021/01/26 10:47:36;;;;;;;33.50;17.57;;;;;;;0.01;81.16;99605.16;2066963;85;21228;-74
2021/01/26 10:50:38;;;;;;;34.90;19.73;;;;;;;0.09;81.28;99602.34;2068896;83;21127;-75
2021/01/26 10:53:46;;;;;;;34.45;19.62;;;;;;;0.12;80.93;99598.20;2088423;81;21161;-74
2021/01/26 10:56:47;;;;;;;27.70;17.48;;;;;;;0.13;80.82;99606.86;2110591;83;21196;-74
2021/01/26 10:59:49;;;;;;;28.80;17.30;;;;;;;0.17;80.83;99608.28;2112009;83;21168;-74
2021/01/26 11:02:50;;;;;;;30.23;16.10;;;;;;;0.20;80.58;99610.69;2118295;83;21129;-74
2021/01/26 11:05:52;;;;;;;25.65;15.53;;;;;;;0.22;80.56;99610.08;2110679;83;21148;-74
2021/01/26 11:08:54;;;;;;;18.52;13.25;;;;;;;0.25;80.35;99597.28;2119617;83;21667;-74
2021/01/26 11:11:55;;;;;;;23.12;14.30;;;;;;;0.25;79.95;99604.63;2118486;83;21125;-74
2021/01/26 11:14:57;;;;;;;24.82;15.38;;;;;;;0.26;79.54;99605.49;2114028;83;21144;-75
2021/01/26 11:17:58;;;;;;;27.82;16.35;;;;;;;0.28;79.91;99597.05;2108394;83;21540;-75
2021/01/26 11:21:01;;;;;;;27.07;15.48;;;;;;;0.28;79.80;99592.66;2117699;81;21129;-74
2021/01/26 11:24:03;;;;;;;22.85;14.47;;;;;;;0.30;79.85;99589.47;2115031;83;22604;-74
2021/01/26 11:27:05;;;;;;;25.02;15.58;;;;;;;0.36;79.82;99593.41;2113772;83;21588;-75
2021/01/26 11:30:11;;;;;;;27.07;15.35;;;;;;;0.39;79.80;99596.61;2110182;83;21545;-72
2021/01/26 11:33:13;;;;;;;30.62;16.07;;;;;;;0.44;79.87;99593.19;2113045;83;21156;-76
2021/01/26 11:36:15;;;;;;;24.30;15.30;;;;;;;0.46;79.73;99593.09;2105036;83;21123;-73
2021/01/26 11:39:17;;;;;;;25.62;13.68;;;;;;;0.47;79.35;99591.30;2119032;83;21254;-74
2021/01/26 11:42:19;;;;;;;26.77;15.35;;;;;;;0.48;79.47;99593.81;2105415;83;21145;-73
2021/01/26 11:45:25;;;;;;;23.07;13.78;;;;;;;0.53;79.63;99589.53;2106749;82;21101;-76
2021/01/26 11:48:27;;;;;;;22.00;14.70;;;;;;;0.54;78.65;99589.91;2112259;82;21571;-74
2021/01/26 11:51:29;;;;;;;26.17;16.57;;;;;;;0.53;78.87;99588.22;2111339;83;21176;-75
2021/01/26 11:54:30;;;;;;;27.00;15.55;;;;;;;0.58;79.51;99596.55;2090608;83;21533;-74
2021/01/26 11:57:32;;;;;;;29.00;15.70;;;;;;;0.62;79.40;99592.74;2112361;83;21165;-76
2021/01/26 12:00:34;;;;;;;25.55;15.30;;;;;;;0.66;79.22;99595.02;2108275;83;21172;-74
2021/01/26 12:03:36;;;;;;;24.77;15.08;;;;;;;0.70;79.04;99592.17;2108755;81;21149;-74
2021/01/26 12:06:38;;;;;;;23.50;13.55;;;;;;;0.74;79.09;99592.31;2116290;82;21664;-75
2021/01/26 12:09:40;;;;;;;27.22;14.55;;;;;;;0.79;78.90;99592.32;2113648;83;21541;-74
2021/01/26 12:12:41;;;;;;;28.23;15.60;;;;;;;0.84;78.80;99586.72;2112946;83;21133;-74
2021/01/26 12:15:43;;;;;;;25.95;16.15;;;;;;;0.88;79.05;99587.69;2110517;83;21164;-75
2021/01/26 12:18:44;;;;;;;30.40;17.57;;;;;;;0.93;78.77;99585.19;2107671;83;21150;-74
2021/01/26 12:21:46;;;;;;;28.98;15.08;;;;;;;0.92;78.34;99583.05;2110837;82;21225;-74
2021/01/26 12:24:47;;;;;;;31.75;16.70;;;;;;;0.92;78.37;99587.45;2112160;83;21203;-74
2021/01/26 12:27:49;;;;;;;30.92;17.42;;;;;;;0.98;78.72;99588.28;2101502;83;21854;-76
2021/01/26 12:30:51;;;;;;;31.77;17.30;;;;;;;1.07;78.56;99586.25;2111691;83;22152;-75
2021/01/26 12:33:52;;;;;;;25.82;15.65;;;;;;;1.15;78.60;99571.30;2086743;83;21094;-74
2021/01/26 12:36:54;;;;;;;27.73;15.03;;;;;;;1.18;77.97;99574.48;2113595;83;21128;-75
2021/01/26 12:39:55;;;;;;;23.40;14.03;;;;;;;1.16;77.83;99572.49;2111028;82;21196;-75
2021/01/26 12:42:57;;;;;;;27.25;14.75;;;;;;;1.16;78.06;99580.33;2115494;83;21141;-74
2021/01/26 12:45:58;;;;;;;22.07;13.03;;;;;;;1.24;78.20;99585.80;2108794;83;21564;-74
2021/01/26 12:49:00;;;;;;;22.50;13.70;;;;;;;1.30;78.05;99580.08;2111075;82;21148;-75
2021/01/26 12:52:02;;;;;;;18.37;12.65;;;;;;;1.34;77.77;99589.33;2121887;83;21133;-74
2021/01/26 12:55:06;;;;;;;21.90;13.08;;;;;;;1.34;77.22;99589.33;2094735;83;21183;-74
2021/01/26 12:58:08;;;;;;;26.50;13.65;;;;;;;1.31;77.22;99587.44;2091328;83;21133;-73
2021/01/26 13:01:11;;;;;;;20.35;11.55;;;;;;;1.32;77.02;99587.33;2090634;83;21200;-73
2021/01/26 13:04:13;;;;;;;17.45;11.65;;;;;;;1.31;76.97;99589.57;2090272;83;21559;-74
2021/01/26 13:07:17;;;;;;;21.70;12.37;;;;;;;1.31;76.62;99586.95;2090710;83;21161;-75
2021/01/26 13:10:19;;;;;;;24.87;12.53;;;;;;;1.31;76.88;99586.95;2089292;83;21345;-74
2021/01/26 13:13:21;;;;;;;41.80;22.45;;;;;;;1.32;76.79;99589.95;2086490;83;21561;-78
2021/01/26 13:16:22;;;;;;;32.30;17.35;;;;;;;1.34;77.07;99594.56;2072901;83;21177;-78
2021/01/26 13:19:26;;;;;;;30.20;16.32;;;;;;;1.42;77.24;99591.83;2091102;83;21137;-79
2021/01/26 13:22:28;;;;;;;32.05;17.00;;;;;;;1.45;76.94;99592.89;2086915;83;21177;-77
2021/01/26 13:25:30;;;;;;;18.35;11.57;;;;;;;1.49;77.03;99590.37;2086207;83;21326;-76
2021/01/26 13:28:32;;;;;;;19.27;11.53;;;;;;;1.47;76.55;99588.38;2090540;83;22417;-75
2021/01/26 13:31:34;;;;;;;32.78;14.65;;;;;;;1.47;76.25;99587.08;2090660;83;21130;-78
2021/01/26 13:34:37;;;;;;;30.35;14.28;;;;;;;1.44;76.01;99597.77;2092328;83;21196;-79
2021/01/26 13:37:38;;;;;;;29.45;15.60;;;;;;;1.40;76.26;99592.42;2090922;83;21168;-78
2021/01/26 13:40:40;;;;;;;17.95;10.50;;;;;;;1.44;76.46;99587.31;2088690;83;21627;-77
2021/01/26 13:43:41;;;;;;;28.25;18.07;;;;;;;1.45;75.99;99585.88;2090593;84;21173;-79
2021/01/26 13:46:43;;;;;;;20.88;13.00;;;;;;;1.47;75.30;99590.52;2091540;83;21098;-78
2021/01/26 13:49:45;;;;;;;14.28;10.05;;;;;;;1.47;75.47;99589.69;2088761;84;21176;-78
2021/01/26 13:52:46;;;;;;;17.37;10.58;;;;;;;1.50;74.38;99581.12;2090149;83;21176;-78
2021/01/26 13:55:48;;;;;;;15.95;9.95;;;;;;;1.53;75.32;99589.20;2109158;82;21212;-79
2021/01/26 13:58:49;;;;;;;17.70;10.35;;;;;;;1.54;75.04;99590.36;2108035;83;21168;-79
2021/01/26 14:01:51;;;;;;;16.35;10.28;;;;;;;1.53;74.45;99590.50;2117791;83;21533;-78
2021/01/26 14:04:53;;;;;;;17.10;10.25;;;;;;;1.48;74.60;99591.34;2114544;83;21226;-78
2021/01/26 14:07:54;;;;;;;15.70;10.35;;;;;;;1.41;75.01;99594.92;2108374;81;21166;-79
2021/01/26 14:10:57;;;;;;;26.65;13.48;;;;;;;1.37;75.20;99596.10;2114836;81;21158;-78
2021/01/26 14:14:00;;;;;;;26.35;12.60;;;;;;;1.32;75.13;99600.41;2114557;83;21176;-78
2021/01/26 14:17:02;;;;;;;19.55;10.72;;;;;;;1.26;75.02;99594.33;2111073;81;21140;-78
2021/01/26 14:20:08;;;;;;;21.40;12.78;;;;;;;1.19;75.05;99597.08;2116012;81;21192;-79
2021/01/26 14:23:11;;;;;;;20.37;11.12;;;;;;;1.13;74.89;99598.87;2114005;83;21145;-79
2021/01/26 14:26:13;;;;;;;23.22;11.63;;;;;;;1.08;74.97;99599.69;2109578;83;21534;-81
2021/01/26 14:29:14;;;;;;;24.37;13.30;;;;;;;1.00;74.96;99605.98;2112516;81;21191;-79
2021/01/26 14:32:16;;;;;;;22.07;12.35;;;;;;;0.97;75.18;99615.36;2114664;83;21219;-80
2021/01/26 14:35:22;;;;;;;16.80;10.15;;;;;;;0.95;75.16;99609.42;2111673;81;21192;-78